sensor_id;sensor_type;location;lat;lon;timestamp;P1;durP1;ratioP1;P2;durP2;ratioP2
74421;SDS011;62856;51.446;8.360;2023-09-18T00:01:36;5.70;;;2.00;;
74421;SDS011;62856;51.446;8.360;2023-09-18T00:04:01;5.63;;;1.83;;
74421;SDS011;62856;51.446;8.360;2023-09-18T00:06:26;5.95;;;2.10;;
74421;SDS011;62856;51.446;8.360;2023-09-18T00:08:52;6.28;;;2.28;;
74421;SDS011;62856;51.446;8.360;2023-09-18T00:11:19;6.00;;;1.95;;
74421;SDS011;62856;51.446;8.360;2023-09-18T00:13:44;6.13;;;1.88;;
74421;SDS011;62856;51.446;8.360;2023-09-18T00:16:09;6.50;;;2.07;;
74421;SDS011;62856;51.446;8.360;2023-09-18T00:18:35;5.57;;;2.45;;
74421;SDS011;62856;51.446;8.360;2023-09-18T00:21:00;6.10;;;2.40;;
74421;SDS011;62856;51.446;8.360;2023-09-18T00:23:26;5.60;;;2.03;;
74421;SDS011;62856;51.446;8.360;2023-09-18T00:25:51;5.53;;;1.92;;
74421;SDS011;62856;51.446;8.360;2023-09-18T00:28:16;6.22;;;1.88;;
74421;SDS011;62856;51.446;8.360;2023-09-18T00:30:44;6.18;;;2.22;;
74421;SDS011;62856;51.446;8.360;2023-09-18T00:33:13;5.45;;;1.90;;
74421;SDS011;62856;51.446;8.360;2023-09-18T00:35:38;7.38;;;2.10;;
74421;SDS011;62856;51.446;8.360;2023-09-18T00:38:04;6.10;;;1.80;;
74421;SDS011;62856;51.446;8.360;2023-09-18T00:40:32;6.22;;;1.77;;
74421;SDS011;62856;51.446;8.360;2023-09-18T00:42:57;4.03;;;1.85;;
74421;SDS011;62856;51.446;8.360;2023-09-18T00:45:23;5.60;;;2.05;;
74421;SDS011;62856;51.446;8.360;2023-09-18T00:47:48;7.30;;;2.10;;
74421;SDS011;62856;51.446;8.360;2023-09-18T00:50:14;5.97;;;1.67;;
74421;SDS011;62856;51.446;8.360;2023-09-18T00:52:40;5.15;;;1.80;;
74421;SDS011;62856;51.446;8.360;2023-09-18T00:55:07;6.32;;;2.22;;
74421;SDS011;62856;51.446;8.360;2023-09-18T00:57:33;6.22;;;2.00;;
74421;SDS011;62856;51.446;8.360;2023-09-18T00:59:59;5.32;;;1.92;;
74421;SDS011;62856;51.446;8.360;2023-09-18T01:02:24;5.47;;;2.08;;
74421;SDS011;62856;51.446;8.360;2023-09-18T01:04:51;4.82;;;1.85;;
74421;SDS011;62856;51.446;8.360;2023-09-18T01:07:17;5.82;;;2.20;;
74421;SDS011;62856;51.446;8.360;2023-09-18T01:09:43;5.72;;;1.80;;
74421;SDS011;62856;51.446;8.360;2023-09-18T01:15:07;5.82;;;1.83;;
74421;SDS011;62856;51.446;8.360;2023-09-18T01:17:35;5.82;;;1.92;;
74421;SDS011;62856;51.446;8.360;2023-09-18T01:20:03;6.57;;;1.92;;
74421;SDS011;62856;51.446;8.360;2023-09-18T01:24:56;5.57;;;1.88;;
74421;SDS011;62856;51.446;8.360;2023-09-18T01:27:21;5.68;;;2.25;;
74421;SDS011;62856;51.446;8.360;2023-09-18T01:29:47;5.60;;;2.05;;
74421;SDS011;62856;51.446;8.360;2023-09-18T01:32:13;6.95;;;2.15;;
74421;SDS011;62856;51.446;8.360;2023-09-18T01:34:42;5.60;;;1.95;;
74421;SDS011;62856;51.446;8.360;2023-09-18T01:37:13;6.20;;;2.33;;
74421;SDS011;62856;51.446;8.360;2023-09-18T01:39:41;5.93;;;2.10;;
74421;SDS011;62856;51.446;8.360;2023-09-18T01:42:08;6.03;;;2.13;;
74421;SDS011;62856;51.446;8.360;2023-09-18T01:44:36;5.90;;;2.00;;
74421;SDS011;62856;51.446;8.360;2023-09-18T01:47:06;6.60;;;2.30;;
74421;SDS011;62856;51.446;8.360;2023-09-18T01:49:34;5.43;;;1.98;;
74421;SDS011;62856;51.446;8.360;2023-09-18T01:52:01;5.32;;;1.85;;
74421;SDS011;62856;51.446;8.360;2023-09-18T01:54:28;6.57;;;2.35;;
74421;SDS011;62856;51.446;8.360;2023-09-18T01:56:54;5.88;;;2.10;;
74421;SDS011;62856;51.446;8.360;2023-09-18T01:59:20;5.63;;;2.10;;
74421;SDS011;62856;51.446;8.360;2023-09-18T02:01:46;9.15;;;2.28;;
74421;SDS011;62856;51.446;8.360;2023-09-18T02:04:12;6.05;;;2.20;;
74421;SDS011;62856;51.446;8.360;2023-09-18T02:06:37;6.40;;;1.90;;
74421;SDS011;62856;51.446;8.360;2023-09-18T02:09:03;6.55;;;2.35;;
74421;SDS011;62856;51.446;8.360;2023-09-18T02:11:28;7.50;;;2.35;;
74421;SDS011;62856;51.446;8.360;2023-09-18T02:13:54;7.15;;;2.38;;
74421;SDS011;62856;51.446;8.360;2023-09-18T02:16:19;6.32;;;2.40;;
74421;SDS011;62856;51.446;8.360;2023-09-18T02:18:49;5.75;;;2.15;;
74421;SDS011;62856;51.446;8.360;2023-09-18T02:21:20;8.23;;;2.22;;
74421;SDS011;62856;51.446;8.360;2023-09-18T02:23:49;6.05;;;2.17;;
74421;SDS011;62856;51.446;8.360;2023-09-18T02:26:16;6.00;;;2.25;;
74421;SDS011;62856;51.446;8.360;2023-09-18T02:28:42;8.18;;;2.80;;
74421;SDS011;62856;51.446;8.360;2023-09-18T02:31:07;5.85;;;2.42;;
74421;SDS011;62856;51.446;8.360;2023-09-18T02:33:33;6.25;;;2.40;;
74421;SDS011;62856;51.446;8.360;2023-09-18T02:35:58;6.32;;;2.38;;
74421;SDS011;62856;51.446;8.360;2023-09-18T02:38:24;6.40;;;2.33;;
74421;SDS011;62856;51.446;8.360;2023-09-18T02:40:49;6.75;;;2.45;;
74421;SDS011;62856;51.446;8.360;2023-09-18T02:43:15;5.63;;;2.15;;
74421;SDS011;62856;51.446;8.360;2023-09-18T02:45:40;5.47;;;2.10;;
74421;SDS011;62856;51.446;8.360;2023-09-18T02:48:05;6.45;;;2.28;;
74421;SDS011;62856;51.446;8.360;2023-09-18T02:50:31;8.93;;;2.70;;
74421;SDS011;62856;51.446;8.360;2023-09-18T02:52:56;5.90;;;2.20;;
74421;SDS011;62856;51.446;8.360;2023-09-18T02:55:21;7.07;;;2.27;;
74421;SDS011;62856;51.446;8.360;2023-09-18T02:57:47;5.70;;;2.22;;
74421;SDS011;62856;51.446;8.360;2023-09-18T03:00:12;6.40;;;2.60;;
74421;SDS011;62856;51.446;8.360;2023-09-18T03:02:38;8.60;;;2.70;;
74421;SDS011;62856;51.446;8.360;2023-09-18T03:05:03;6.00;;;2.50;;
74421;SDS011;62856;51.446;8.360;2023-09-18T03:07:29;7.40;;;2.47;;
74421;SDS011;62856;51.446;8.360;2023-09-18T03:09:55;6.10;;;2.75;;
74421;SDS011;62856;51.446;8.360;2023-09-18T03:12:20;6.57;;;2.40;;
74421;SDS011;62856;51.446;8.360;2023-09-18T03:14:47;7.40;;;2.50;;
74421;SDS011;62856;51.446;8.360;2023-09-18T03:17:13;6.35;;;2.60;;
74421;SDS011;62856;51.446;8.360;2023-09-18T03:19:38;7.18;;;2.30;;
74421;SDS011;62856;51.446;8.360;2023-09-18T03:22:03;7.60;;;2.40;;
74421;SDS011;62856;51.446;8.360;2023-09-18T03:24:29;7.45;;;2.58;;
74421;SDS011;62856;51.446;8.360;2023-09-18T03:26:54;6.82;;;2.70;;
74421;SDS011;62856;51.446;8.360;2023-09-18T03:29:19;7.30;;;2.30;;
74421;SDS011;62856;51.446;8.360;2023-09-18T03:31:45;4.95;;;1.95;;
74421;SDS011;62856;51.446;8.360;2023-09-18T03:34:10;5.88;;;2.20;;
74421;SDS011;62856;51.446;8.360;2023-09-18T03:36:35;8.13;;;2.50;;
74421;SDS011;62856;51.446;8.360;2023-09-18T03:39:02;6.68;;;2.20;;
74421;SDS011;62856;51.446;8.360;2023-09-18T03:41:29;5.72;;;2.05;;
74421;SDS011;62856;51.446;8.360;2023-09-18T03:43:58;7.60;;;2.03;;
74421;SDS011;62856;51.446;8.360;2023-09-18T03:46:24;6.20;;;2.20;;
74421;SDS011;62856;51.446;8.360;2023-09-18T03:48:49;6.13;;;2.30;;
74421;SDS011;62856;51.446;8.360;2023-09-18T03:51:15;7.28;;;2.38;;
74421;SDS011;62856;51.446;8.360;2023-09-18T03:53:40;7.15;;;1.92;;
74421;SDS011;62856;51.446;8.360;2023-09-18T03:56:06;6.80;;;2.33;;
74421;SDS011;62856;51.446;8.360;2023-09-18T03:58:31;6.50;;;2.05;;
74421;SDS011;62856;51.446;8.360;2023-09-18T04:01:00;7.53;;;2.33;;
74421;SDS011;62856;51.446;8.360;2023-09-18T04:03:26;5.75;;;1.90;;
74421;SDS011;62856;51.446;8.360;2023-09-18T04:05:51;7.35;;;2.20;;
74421;SDS011;62856;51.446;8.360;2023-09-18T04:08:17;10.27;;;2.60;;
74421;SDS011;62856;51.446;8.360;2023-09-18T04:10:42;7.63;;;2.50;;
74421;SDS011;62856;51.446;8.360;2023-09-18T04:13:08;7.55;;;2.33;;
74421;SDS011;62856;51.446;8.360;2023-09-18T04:15:34;7.20;;;2.38;;
74421;SDS011;62856;51.446;8.360;2023-09-18T04:18:02;6.82;;;2.22;;
74421;SDS011;62856;51.446;8.360;2023-09-18T04:20:31;6.28;;;2.55;;
74421;SDS011;62856;51.446;8.360;2023-09-18T04:25:48;8.07;;;2.38;;
74421;SDS011;62856;51.446;8.360;2023-09-18T04:28:18;8.02;;;2.55;;
74421;SDS011;62856;51.446;8.360;2023-09-18T04:30:45;6.60;;;2.10;;
74421;SDS011;62856;51.446;8.360;2023-09-18T04:33:11;7.88;;;2.35;;
74421;SDS011;62856;51.446;8.360;2023-09-18T04:35:39;6.85;;;2.38;;
74421;SDS011;62856;51.446;8.360;2023-09-18T04:38:06;6.97;;;2.30;;
74421;SDS011;62856;51.446;8.360;2023-09-18T04:40:32;8.30;;;2.22;;
74421;SDS011;62856;51.446;8.360;2023-09-18T04:42:58;6.93;;;2.78;;
74421;SDS011;62856;51.446;8.360;2023-09-18T04:45:24;7.03;;;2.10;;
74421;SDS011;62856;51.446;8.360;2023-09-18T04:47:50;8.75;;;2.38;;
74421;SDS011;62856;51.446;8.360;2023-09-18T04:50:15;8.95;;;2.85;;
74421;SDS011;62856;51.446;8.360;2023-09-18T04:52:40;8.47;;;2.00;;
74421;SDS011;62856;51.446;8.360;2023-09-18T04:55:06;6.70;;;2.00;;
74421;SDS011;62856;51.446;8.360;2023-09-18T04:57:32;9.18;;;1.73;;
74421;SDS011;62856;51.446;8.360;2023-09-18T04:59:57;8.70;;;2.70;;
74421;SDS011;62856;51.446;8.360;2023-09-18T05:02:22;6.28;;;1.88;;
74421;SDS011;62856;51.446;8.360;2023-09-18T05:04:50;8.88;;;1.70;;
74421;SDS011;62856;51.446;8.360;2023-09-18T05:07:15;8.98;;;2.00;;
74421;SDS011;62856;51.446;8.360;2023-09-18T05:09:41;9.02;;;1.63;;
74421;SDS011;62856;51.446;8.360;2023-09-18T05:12:07;9.75;;;2.30;;
74421;SDS011;62856;51.446;8.360;2023-09-18T05:14:38;9.18;;;2.40;;
74421;SDS011;62856;51.446;8.360;2023-09-18T05:17:04;8.82;;;2.60;;
74421;SDS011;62856;51.446;8.360;2023-09-18T05:19:30;8.38;;;2.00;;
74421;SDS011;62856;51.446;8.360;2023-09-18T05:21:55;8.40;;;2.28;;
74421;SDS011;62856;51.446;8.360;2023-09-18T05:24:20;8.43;;;1.70;;
74421;SDS011;62856;51.446;8.360;2023-09-18T05:26:51;8.68;;;1.95;;
74421;SDS011;62856;51.446;8.360;2023-09-18T05:29:18;7.75;;;1.95;;
74421;SDS011;62856;51.446;8.360;2023-09-18T05:31:43;11.15;;;2.45;;
74421;SDS011;62856;51.446;8.360;2023-09-18T05:34:10;10.00;;;1.77;;
74421;SDS011;62856;51.446;8.360;2023-09-18T05:36:36;9.63;;;1.80;;
74421;SDS011;62856;51.446;8.360;2023-09-18T05:39:01;5.78;;;1.73;;
74421;SDS011;62856;51.446;8.360;2023-09-18T05:41:26;6.15;;;1.75;;
74421;SDS011;62856;51.446;8.360;2023-09-18T05:43:53;6.68;;;2.10;;
74421;SDS011;62856;51.446;8.360;2023-09-18T05:46:20;9.43;;;1.92;;
74421;SDS011;62856;51.446;8.360;2023-09-18T05:48:45;9.82;;;1.80;;
74421;SDS011;62856;51.446;8.360;2023-09-18T05:51:10;9.07;;;2.00;;
74421;SDS011;62856;51.446;8.360;2023-09-18T05:53:36;6.57;;;1.80;;
74421;SDS011;62856;51.446;8.360;2023-09-18T05:56:03;9.52;;;1.60;;
74421;SDS011;62856;51.446;8.360;2023-09-18T05:58:29;7.05;;;2.10;;
74421;SDS011;62856;51.446;8.360;2023-09-18T06:01:00;5.38;;;1.55;;
74421;SDS011;62856;51.446;8.360;2023-09-18T06:03:26;6.80;;;1.80;;
74421;SDS011;62856;51.446;8.360;2023-09-18T06:05:52;11.15;;;2.30;;
74421;SDS011;62856;51.446;8.360;2023-09-18T06:08:17;11.27;;;2.25;;
74421;SDS011;62856;51.446;8.360;2023-09-18T06:10:44;7.45;;;2.03;;
74421;SDS011;62856;51.446;8.360;2023-09-18T06:13:09;8.20;;;1.90;;
74421;SDS011;62856;51.446;8.360;2023-09-18T06:15:35;7.15;;;2.13;;
74421;SDS011;62856;51.446;8.360;2023-09-18T06:18:00;9.15;;;2.08;;
74421;SDS011;62856;51.446;8.360;2023-09-18T06:20:26;5.93;;;1.75;;
74421;SDS011;62856;51.446;8.360;2023-09-18T06:22:51;6.97;;;2.05;;
74421;SDS011;62856;51.446;8.360;2023-09-18T06:25:17;5.70;;;1.80;;
74421;SDS011;62856;51.446;8.360;2023-09-18T06:27:42;7.82;;;1.60;;
74421;SDS011;62856;51.446;8.360;2023-09-18T06:30:08;4.70;;;1.70;;
74421;SDS011;62856;51.446;8.360;2023-09-18T06:32:34;9.48;;;2.08;;
74421;SDS011;62856;51.446;8.360;2023-09-18T06:35:01;7.18;;;2.33;;
74421;SDS011;62856;51.446;8.360;2023-09-18T06:37:27;6.93;;;1.98;;
74421;SDS011;62856;51.446;8.360;2023-09-18T06:39:53;6.95;;;1.75;;
74421;SDS011;62856;51.446;8.360;2023-09-18T06:42:18;7.30;;;1.75;;
74421;SDS011;62856;51.446;8.360;2023-09-18T06:44:44;7.38;;;2.10;;
74421;SDS011;62856;51.446;8.360;2023-09-18T06:47:09;5.80;;;2.00;;
74421;SDS011;62856;51.446;8.360;2023-09-18T06:49:35;6.00;;;1.70;;
74421;SDS011;62856;51.446;8.360;2023-09-18T06:52:00;8.45;;;1.83;;
74421;SDS011;62856;51.446;8.360;2023-09-18T06:54:25;8.43;;;1.50;;
74421;SDS011;62856;51.446;8.360;2023-09-18T06:56:51;7.13;;;2.00;;
74421;SDS011;62856;51.446;8.360;2023-09-18T06:59:16;5.68;;;1.58;;
74421;SDS011;62856;51.446;8.360;2023-09-18T07:01:41;9.82;;;1.80;;
74421;SDS011;62856;51.446;8.360;2023-09-18T07:04:07;5.65;;;1.98;;
74421;SDS011;62856;51.446;8.360;2023-09-18T07:06:33;5.65;;;1.52;;
74421;SDS011;62856;51.446;8.360;2023-09-18T07:08:58;6.82;;;1.70;;
74421;SDS011;62856;51.446;8.360;2023-09-18T07:11:24;5.57;;;1.90;;
74421;SDS011;62856;51.446;8.360;2023-09-18T07:13:49;5.95;;;1.90;;
74421;SDS011;62856;51.446;8.360;2023-09-18T07:16:15;8.05;;;1.75;;
74421;SDS011;62856;51.446;8.360;2023-09-18T07:18:40;5.07;;;1.55;;
74421;SDS011;62856;51.446;8.360;2023-09-18T07:21:05;5.35;;;1.70;;
74421;SDS011;62856;51.446;8.360;2023-09-18T07:23:31;8.43;;;1.67;;
74421;SDS011;62856;51.446;8.360;2023-09-18T07:25:56;7.32;;;1.88;;
74421;SDS011;62856;51.446;8.360;2023-09-18T07:28:23;5.90;;;1.70;;
74421;SDS011;62856;51.446;8.360;2023-09-18T07:30:51;4.13;;;1.50;;
74421;SDS011;62856;51.446;8.360;2023-09-18T07:33:16;3.60;;;1.27;;
74421;SDS011;62856;51.446;8.360;2023-09-18T07:35:48;7.00;;;1.70;;
74421;SDS011;62856;51.446;8.360;2023-09-18T07:38:16;8.70;;;1.75;;
74421;SDS011;62856;51.446;8.360;2023-09-18T07:40:44;4.18;;;1.33;;
74421;SDS011;62856;51.446;8.360;2023-09-18T07:43:09;6.65;;;1.67;;
74421;SDS011;62856;51.446;8.360;2023-09-18T07:45:34;4.55;;;1.30;;
74421;SDS011;62856;51.446;8.360;2023-09-18T07:48:03;6.53;;;1.70;;
74421;SDS011;62856;51.446;8.360;2023-09-18T07:50:29;5.55;;;1.40;;
74421;SDS011;62856;51.446;8.360;2023-09-18T07:52:56;4.50;;;1.80;;
74421;SDS011;62856;51.446;8.360;2023-09-18T07:55:22;7.28;;;1.67;;
74421;SDS011;62856;51.446;8.360;2023-09-18T07:57:47;4.80;;;1.35;;
74421;SDS011;62856;51.446;8.360;2023-09-18T08:00:14;4.75;;;1.40;;
74421;SDS011;62856;51.446;8.360;2023-09-18T08:02:40;5.75;;;1.48;;
74421;SDS011;62856;51.446;8.360;2023-09-18T08:05:07;4.10;;;1.25;;
74421;SDS011;62856;51.446;8.360;2023-09-18T08:07:33;5.80;;;1.25;;
74421;SDS011;62856;51.446;8.360;2023-09-18T08:10:01;7.85;;;2.78;;
74421;SDS011;62856;51.446;8.360;2023-09-18T08:12:30;6.13;;;1.20;;
74421;SDS011;62856;51.446;8.360;2023-09-18T08:14:55;4.72;;;1.55;;
74421;SDS011;62856;51.446;8.360;2023-09-18T08:17:23;4.93;;;1.40;;
74421;SDS011;62856;51.446;8.360;2023-09-18T08:19:50;4.47;;;1.20;;
74421;SDS011;62856;51.446;8.360;2023-09-18T08:24:44;5.43;;;1.13;;
74421;SDS011;62856;51.446;8.360;2023-09-18T08:27:10;5.22;;;1.73;;
74421;SDS011;62856;51.446;8.360;2023-09-18T08:29:37;5.45;;;1.30;;
74421;SDS011;62856;51.446;8.360;2023-09-18T08:32:02;3.35;;;1.17;;
74421;SDS011;62856;51.446;8.360;2023-09-18T08:34:28;5.00;;;1.20;;
74421;SDS011;62856;51.446;8.360;2023-09-18T08:36:53;5.32;;;1.13;;
74421;SDS011;62856;51.446;8.360;2023-09-18T08:39:18;4.38;;;1.10;;
74421;SDS011;62856;51.446;8.360;2023-09-18T08:41:45;8.63;;;1.27;;
74421;SDS011;62856;51.446;8.360;2023-09-18T08:44:15;6.32;;;1.35;;
74421;SDS011;62856;51.446;8.360;2023-09-18T08:46:42;9.07;;;1.15;;
74421;SDS011;62856;51.446;8.360;2023-09-18T08:49:09;4.80;;;1.10;;
74421;SDS011;62856;51.446;8.360;2023-09-18T08:54:03;4.07;;;1.10;;
74421;SDS011;62856;51.446;8.360;2023-09-18T08:56:29;5.50;;;1.10;;
74421;SDS011;62856;51.446;8.360;2023-09-18T08:58:56;5.38;;;1.30;;
74421;SDS011;62856;51.446;8.360;2023-09-18T09:01:24;5.00;;;1.10;;
74421;SDS011;62856;51.446;8.360;2023-09-18T09:03:49;4.70;;;1.10;;
74421;SDS011;62856;51.446;8.360;2023-09-18T09:06:15;6.75;;;1.17;;
74421;SDS011;62856;51.446;8.360;2023-09-18T09:08:41;4.30;;;1.02;;
74421;SDS011;62856;51.446;8.360;2023-09-18T09:11:07;3.17;;;1.00;;
74421;SDS011;62856;51.446;8.360;2023-09-18T09:13:32;6.53;;;1.00;;
74421;SDS011;62856;51.446;8.360;2023-09-18T09:15:58;5.40;;;1.30;;
74421;SDS011;62856;51.446;8.360;2023-09-18T09:18:24;2.20;;;1.00;;
74421;SDS011;62856;51.446;8.360;2023-09-18T09:23:27;4.13;;;0.85;;
74421;SDS011;62856;51.446;8.360;2023-09-18T09:26:11;3.88;;;1.08;;
74421;SDS011;62856;51.446;8.360;2023-09-18T09:28:38;3.63;;;0.98;;
74421;SDS011;62856;51.446;8.360;2023-09-18T09:31:03;6.68;;;1.15;;
74421;SDS011;62856;51.446;8.360;2023-09-18T09:33:29;6.93;;;1.20;;
74421;SDS011;62856;51.446;8.360;2023-09-18T09:35:55;6.65;;;1.00;;
74421;SDS011;62856;51.446;8.360;2023-09-18T09:38:22;4.90;;;1.23;;
74421;SDS011;62856;51.446;8.360;2023-09-18T09:40:54;4.22;;;1.10;;
74421;SDS011;62856;51.446;8.360;2023-09-18T09:43:19;3.15;;;1.00;;
74421;SDS011;62856;51.446;8.360;2023-09-18T09:45:44;4.72;;;1.10;;
74421;SDS011;62856;51.446;8.360;2023-09-18T09:48:11;2.97;;;0.95;;
74421;SDS011;62856;51.446;8.360;2023-09-18T09:50:47;3.83;;;1.00;;
74421;SDS011;62856;51.446;8.360;2023-09-18T09:53:13;4.22;;;1.10;;
74421;SDS011;62856;51.446;8.360;2023-09-18T09:55:39;4.28;;;1.10;;
74421;SDS011;62856;51.446;8.360;2023-09-18T09:58:06;4.95;;;1.00;;
74421;SDS011;62856;51.446;8.360;2023-09-18T10:00:41;5.47;;;1.20;;
74421;SDS011;62856;51.446;8.360;2023-09-18T10:03:14;4.47;;;1.00;;
74421;SDS011;62856;51.446;8.360;2023-09-18T10:05:42;3.08;;;1.05;;
74421;SDS011;62856;51.446;8.360;2023-09-18T10:08:19;3.75;;;0.85;;
74421;SDS011;62856;51.446;8.360;2023-09-18T10:10:51;3.80;;;1.10;;
74421;SDS011;62856;51.446;8.360;2023-09-18T10:13:18;4.60;;;1.10;;
74421;SDS011;62856;51.446;8.360;2023-09-18T10:15:46;4.22;;;1.00;;
74421;SDS011;62856;51.446;8.360;2023-09-18T10:18:16;4.32;;;1.10;;
74421;SDS011;62856;51.446;8.360;2023-09-18T10:20:47;2.95;;;0.90;;
74421;SDS011;62856;51.446;8.360;2023-09-18T10:23:20;4.35;;;1.05;;
74421;SDS011;62856;51.446;8.360;2023-09-18T10:25:59;6.32;;;1.45;;
74421;SDS011;62856;51.446;8.360;2023-09-18T10:28:28;7.95;;;1.10;;
74421;SDS011;62856;51.446;8.360;2023-09-18T10:30:56;3.67;;;1.20;;
74421;SDS011;62856;51.446;8.360;2023-09-18T10:33:23;3.85;;;1.20;;
74421;SDS011;62856;51.446;8.360;2023-09-18T10:35:49;5.93;;;1.10;;
74421;SDS011;62856;51.446;8.360;2023-09-18T10:38:17;4.78;;;1.00;;
74421;SDS011;62856;51.446;8.360;2023-09-18T10:40:43;5.45;;;1.10;;
74421;SDS011;62856;51.446;8.360;2023-09-18T10:43:12;5.28;;;1.60;;
74421;SDS011;62856;51.446;8.360;2023-09-18T10:45:40;2.38;;;0.77;;
74421;SDS011;62856;51.446;8.360;2023-09-18T10:48:07;5.18;;;0.93;;
74421;SDS011;62856;51.446;8.360;2023-09-18T10:50:34;3.00;;;0.95;;
74421;SDS011;62856;51.446;8.360;2023-09-18T10:53:00;3.22;;;0.90;;
74421;SDS011;62856;51.446;8.360;2023-09-18T10:55:27;5.82;;;1.15;;
74421;SDS011;62856;51.446;8.360;2023-09-18T10:57:54;3.33;;;0.88;;
74421;SDS011;62856;51.446;8.360;2023-09-18T11:00:21;5.60;;;1.10;;
74421;SDS011;62856;51.446;8.360;2023-09-18T11:02:52;4.63;;;1.48;;
74421;SDS011;62856;51.446;8.360;2023-09-18T11:05:32;2.13;;;0.95;;
74421;SDS011;62856;51.446;8.360;2023-09-18T11:11:02;5.85;;;1.15;;
74421;SDS011;62856;51.446;8.360;2023-09-18T11:13:42;5.63;;;1.00;;
74421;SDS011;62856;51.446;8.360;2023-09-18T11:16:17;4.18;;;1.10;;
74421;SDS011;62856;51.446;8.360;2023-09-18T11:18:45;4.47;;;1.10;;
74421;SDS011;62856;51.446;8.360;2023-09-18T11:21:12;5.05;;;0.95;;
74421;SDS011;62856;51.446;8.360;2023-09-18T11:23:42;4.55;;;1.20;;
74421;SDS011;62856;51.446;8.360;2023-09-18T11:26:08;2.40;;;0.95;;
74421;SDS011;62856;51.446;8.360;2023-09-18T11:28:35;4.00;;;0.95;;
74421;SDS011;62856;51.446;8.360;2023-09-18T11:31:02;3.55;;;1.40;;
74421;SDS011;62856;51.446;8.360;2023-09-18T11:36:06;4.88;;;1.00;;
74421;SDS011;62856;51.446;8.360;2023-09-18T11:38:34;4.20;;;1.17;;
74421;SDS011;62856;51.446;8.360;2023-09-18T11:41:01;3.65;;;0.88;;
74421;SDS011;62856;51.446;8.360;2023-09-18T11:43:44;6.35;;;0.98;;
74421;SDS011;62856;51.446;8.360;2023-09-18T11:46:10;3.78;;;1.10;;
74421;SDS011;62856;51.446;8.360;2023-09-18T11:48:37;5.47;;;1.00;;
74421;SDS011;62856;51.446;8.360;2023-09-18T11:51:06;3.15;;;0.98;;
74421;SDS011;62856;51.446;8.360;2023-09-18T11:53:33;5.90;;;1.02;;
74421;SDS011;62856;51.446;8.360;2023-09-18T11:56:02;3.15;;;0.88;;
74421;SDS011;62856;51.446;8.360;2023-09-18T11:58:28;5.18;;;1.15;;
74421;SDS011;62856;51.446;8.360;2023-09-18T12:00:53;9.85;;;1.25;;
74421;SDS011;62856;51.446;8.360;2023-09-18T12:03:22;2.65;;;0.90;;
74421;SDS011;62856;51.446;8.360;2023-09-18T12:06:01;3.38;;;1.10;;
74421;SDS011;62856;51.446;8.360;2023-09-18T12:08:31;4.55;;;0.90;;
74421;SDS011;62856;51.446;8.360;2023-09-18T12:10:57;4.50;;;1.00;;
74421;SDS011;62856;51.446;8.360;2023-09-18T12:13:25;2.47;;;0.90;;
74421;SDS011;62856;51.446;8.360;2023-09-18T12:16:02;4.50;;;1.23;;
74421;SDS011;62856;51.446;8.360;2023-09-18T12:18:30;5.07;;;1.30;;
74421;SDS011;62856;51.446;8.360;2023-09-18T12:21:05;4.25;;;1.15;;
74421;SDS011;62856;51.446;8.360;2023-09-18T12:23:41;7.95;;;1.00;;
74421;SDS011;62856;51.446;8.360;2023-09-18T12:26:11;5.78;;;1.20;;
74421;SDS011;62856;51.446;8.360;2023-09-18T12:28:41;3.80;;;1.02;;
74421;SDS011;62856;51.446;8.360;2023-09-18T12:31:14;4.88;;;1.05;;
74421;SDS011;62856;51.446;8.360;2023-09-18T12:33:41;3.60;;;1.00;;
74421;SDS011;62856;51.446;8.360;2023-09-18T12:36:08;4.85;;;1.20;;
74421;SDS011;62856;51.446;8.360;2023-09-18T12:38:34;4.28;;;1.27;;
74421;SDS011;62856;51.446;8.360;2023-09-18T12:41:02;2.72;;;1.00;;
74421;SDS011;62856;51.446;8.360;2023-09-18T12:43:33;2.53;;;1.00;;
74421;SDS011;62856;51.446;8.360;2023-09-18T12:46:00;2.83;;;0.90;;
74421;SDS011;62856;51.446;8.360;2023-09-18T12:48:26;3.63;;;0.95;;
74421;SDS011;62856;51.446;8.360;2023-09-18T12:50:52;2.90;;;1.00;;
74421;SDS011;62856;51.446;8.360;2023-09-18T12:53:21;4.70;;;1.20;;
74421;SDS011;62856;51.446;8.360;2023-09-18T12:55:48;3.00;;;1.17;;
74421;SDS011;62856;51.446;8.360;2023-09-18T12:58:13;2.28;;;0.77;;
74421;SDS011;62856;51.446;8.360;2023-09-18T13:00:44;4.32;;;1.20;;
74421;SDS011;62856;51.446;8.360;2023-09-18T13:03:16;2.95;;;1.17;;
74421;SDS011;62856;51.446;8.360;2023-09-18T13:05:42;3.30;;;1.02;;
74421;SDS011;62856;51.446;8.360;2023-09-18T13:08:07;3.33;;;0.93;;
74421;SDS011;62856;51.446;8.360;2023-09-18T13:10:46;3.72;;;0.90;;
74421;SDS011;62856;51.446;8.360;2023-09-18T13:13:17;5.95;;;1.20;;
74421;SDS011;62856;51.446;8.360;2023-09-18T13:15:44;5.15;;;1.02;;
74421;SDS011;62856;51.446;8.360;2023-09-18T13:18:13;3.58;;;1.10;;
74421;SDS011;62856;51.446;8.360;2023-09-18T13:23:06;2.67;;;1.00;;
74421;SDS011;62856;51.446;8.360;2023-09-18T13:25:32;4.20;;;1.20;;
74421;SDS011;62856;51.446;8.360;2023-09-18T13:28:00;1.83;;;0.85;;
74421;SDS011;62856;51.446;8.360;2023-09-18T13:30:27;2.22;;;0.80;;
74421;SDS011;62856;51.446;8.360;2023-09-18T13:33:00;3.13;;;1.58;;
74421;SDS011;62856;51.446;8.360;2023-09-18T13:35:28;2.53;;;1.00;;
74421;SDS011;62856;51.446;8.360;2023-09-18T13:37:53;2.53;;;0.90;;
74421;SDS011;62856;51.446;8.360;2023-09-18T13:40:19;6.35;;;1.05;;
74421;SDS011;62856;51.446;8.360;2023-09-18T13:42:44;2.97;;;1.10;;
74421;SDS011;62856;51.446;8.360;2023-09-18T13:45:09;1.58;;;0.85;;
74421;SDS011;62856;51.446;8.360;2023-09-18T13:47:35;2.08;;;0.90;;
74421;SDS011;62856;51.446;8.360;2023-09-18T13:50:04;4.22;;;1.05;;
74421;SDS011;62856;51.446;8.360;2023-09-18T13:52:30;2.15;;;1.10;;
74421;SDS011;62856;51.446;8.360;2023-09-18T13:54:56;2.83;;;1.10;;
74421;SDS011;62856;51.446;8.360;2023-09-18T13:57:22;2.28;;;0.82;;
74421;SDS011;62856;51.446;8.360;2023-09-18T13:59:49;1.88;;;0.93;;
74421;SDS011;62856;51.446;8.360;2023-09-18T14:02:15;3.65;;;0.98;;
74421;SDS011;62856;51.446;8.360;2023-09-18T14:04:41;4.00;;;1.10;;
74421;SDS011;62856;51.446;8.360;2023-09-18T14:07:08;3.38;;;0.82;;
74421;SDS011;62856;51.446;8.360;2023-09-18T14:09:34;2.95;;;0.93;;
74421;SDS011;62856;51.446;8.360;2023-09-18T14:12:00;4.43;;;1.00;;
74421;SDS011;62856;51.446;8.360;2023-09-18T14:14:28;3.58;;;1.10;;
74421;SDS011;62856;51.446;8.360;2023-09-18T14:16:55;4.22;;;1.40;;
74421;SDS011;62856;51.446;8.360;2023-09-18T14:19:20;2.78;;;1.00;;
74421;SDS011;62856;51.446;8.360;2023-09-18T14:21:46;2.50;;;1.02;;
74421;SDS011;62856;51.446;8.360;2023-09-18T14:24:14;3.65;;;1.00;;
74421;SDS011;62856;51.446;8.360;2023-09-18T14:26:40;2.67;;;0.98;;
74421;SDS011;62856;51.446;8.360;2023-09-18T14:29:07;3.28;;;1.10;;
74421;SDS011;62856;51.446;8.360;2023-09-18T14:31:33;3.85;;;0.93;;
74421;SDS011;62856;51.446;8.360;2023-09-18T14:33:58;2.00;;;0.82;;
74421;SDS011;62856;51.446;8.360;2023-09-18T14:36:25;2.97;;;0.90;;
74421;SDS011;62856;51.446;8.360;2023-09-18T14:38:50;3.45;;;1.02;;
74421;SDS011;62856;51.446;8.360;2023-09-18T14:41:15;3.13;;;0.90;;
74421;SDS011;62856;51.446;8.360;2023-09-18T14:43:42;3.83;;;0.80;;
74421;SDS011;62856;51.446;8.360;2023-09-18T14:46:08;4.13;;;1.50;;
74421;SDS011;62856;51.446;8.360;2023-09-18T14:48:34;2.45;;;0.80;;
74421;SDS011;62856;51.446;8.360;2023-09-18T14:50:59;4.97;;;1.27;;
74421;SDS011;62856;51.446;8.360;2023-09-18T14:53:25;3.75;;;1.27;;
74421;SDS011;62856;51.446;8.360;2023-09-18T14:55:51;3.78;;;1.27;;
74421;SDS011;62856;51.446;8.360;2023-09-18T14:58:16;5.75;;;1.20;;
74421;SDS011;62856;51.446;8.360;2023-09-18T15:00:43;3.45;;;0.90;;
74421;SDS011;62856;51.446;8.360;2023-09-18T15:03:09;2.97;;;0.90;;
74421;SDS011;62856;51.446;8.360;2023-09-18T15:05:34;4.20;;;1.10;;
74421;SDS011;62856;51.446;8.360;2023-09-18T15:07:59;3.70;;;0.93;;
74421;SDS011;62856;51.446;8.360;2023-09-18T15:10:25;3.73;;;1.10;;